Time;durP1;ratioP1;P1;durP2;ratioP2;P2;SDS_P1;SDS_P2;PMS_P1;PMS_P2;Temp;Humidity;BMP_temperature;BMP_pressure;BME280_temperature;BME280_humidity;BME280_pressure;Samples;Min_cycle;Max_cycle;Signal;HPM_P1;HPM_P2
2024/04/14 00:01:22;;;;;;;5.80;3.85;;;;;;;19.14;60.50;100549.03;11425404;25;20028;-60
2024/04/14 00:06:26;;;;;;;4.85;2.88;;;;;;;19.00;61.11;100537.09;11393362;25;20049;-59
2024/04/14 00:11:28;;;;;;;5.65;3.70;;;;;;;18.90;61.73;100538.13;11416476;25;20209;-59
2024/04/14 00:16:29;;;;;;;5.78;3.17;;;;;;;18.93;61.70;100525.31;11424386;25;20017;-60
2024/04/14 00:21:31;;;;;;;3.53;2.88;;;;;;;18.91;61.79;100528.16;11435020;25;20011;-60
2024/04/14 00:26:32;;;;;;;6.25;2.70;;;;;;;18.89;62.35;100522.13;11424689;25;20024;-61
2024/04/14 00:31:34;;;;;;;5.93;3.67;;;;;;;18.84;62.32;100516.34;11429869;25;20700;-61
2024/04/14 00:36:36;;;;;;;4.10;3.10;;;;;;;18.72;62.49;100497.00;11429713;25;20008;-60
2024/04/14 00:41:38;;;;;;;4.57;2.78;;;;;;;18.65;62.75;100507.63;11422879;25;20088;-60
2024/04/14 00:46:39;;;;;;;3.72;2.90;;;;;;;18.71;62.45;100506.09;11429145;25;20013;-61
2024/04/14 00:51:41;;;;;;;3.13;2.35;;;;;;;18.69;62.51;100500.03;11393134;25;20249;-59
2024/04/14 00:56:44;;;;;;;3.30;3.00;;;;;;;18.63;63.32;100498.88;11395399;25;20009;-60
2024/04/14 01:01:46;;;;;;;3.97;2.47;;;;;;;18.61;63.25;100498.19;11434465;25;20480;-59
2024/04/14 01:06:47;;;;;;;4.00;3.03;;;;;;;18.60;63.43;100510.00;11395603;25;20089;-60
2024/04/14 01:11:49;;;;;;;3.38;2.28;;;;;;;18.55;63.11;100507.81;11395919;25;20005;-60
2024/04/14 01:16:50;;;;;;;2.92;2.28;;;;;;;18.53;63.59;100512.50;11392068;25;20012;-60
2024/04/14 01:21:52;;;;;;;5.72;2.85;;;;;;;18.42;64.34;100509.31;11428752;25;20072;-61
2024/04/14 01:26:53;;;;;;;4.32;2.42;;;;;;;18.34;64.26;100497.50;11385840;25;20011;-62
2024/04/14 01:31:55;;;;;;;3.83;2.55;;;;;;;18.29;64.87;100490.97;11394412;25;20017;-61
2024/04/14 01:36:56;;;;;;;3.65;2.53;;;;;;;18.31;64.39;100494.31;11427158;25;20973;-59
2024/04/14 01:41:58;;;;;;;4.50;3.17;;;;;;;18.19;64.97;100480.34;11425839;25;20016;-62
2024/04/14 01:46:59;;;;;;;2.83;2.55;;;;;;;18.22;65.25;100479.16;11435600;25;20004;-60
2024/04/14 01:52:02;;;;;;;5.63;2.58;;;;;;;18.21;65.04;100483.72;11438634;25;20020;-60
2024/04/14 01:57:04;;;;;;;2.58;2.28;;;;;;;18.18;65.07;100484.06;11433264;25;20009;-60
2024/04/14 02:02:05;;;;;;;4.18;3.03;;;;;;;18.14;65.31;100488.09;11432361;25;20016;-62
2024/04/14 02:07:07;;;;;;;2.55;2.35;;;;;;;18.06;65.30;100483.53;11433681;25;20631;-61
2024/04/14 02:12:08;;;;;;;3.72;2.35;;;;;;;18.02;65.96;100464.16;11432992;25;20075;-59
2024/04/14 02:17:09;;;;;;;6.03;3.15;;;;;;;18.08;65.82;100480.69;11431417;25;20026;-60
2024/04/14 02:22:11;;;;;;;3.92;2.90;;;;;;;17.95;66.47;100478.47;11435509;25;20000;-58
2024/04/14 02:27:12;;;;;;;4.50;2.90;;;;;;;18.05;66.08;100494.50;11430782;25;20588;-61
2024/04/14 02:32:14;;;;;;;4.00;2.80;;;;;;;17.98;66.72;100489.75;11422164;25;20060;-59
2024/04/14 02:37:16;;;;;;;4.22;3.05;;;;;;;17.97;66.82;100498.84;11402112;25;19997;-60
2024/04/14 02:42:17;;;;;;;3.85;3.20;;;;;;;17.88;67.42;100497.13;11400069;25;20048;-63
2024/04/14 02:47:19;;;;;;;5.00;3.00;;;;;;;17.83;67.34;100480.59;11433578;25;20045;-60
2024/04/14 02:52:20;;;;;;;3.65;3.33;;;;;;;17.82;67.62;100495.09;11438153;25;20005;-59
2024/04/14 02:57:23;;;;;;;4.57;3.72;;;;;;;17.72;68.02;100484.47;11433533;25;20354;-60
2024/04/14 03:02:25;;;;;;;8.05;4.13;;;;;;;17.71;68.58;100492.69;11425909;25;20073;-60
2024/04/14 03:07:28;;;;;;;4.30;3.60;;;;;;;17.64;68.68;100485.28;11406013;25;20818;-61
2024/04/14 03:12:29;;;;;;;6.60;3.75;;;;;;;17.60;69.69;100489.31;11418973;25;20001;-62
2024/04/14 03:17:31;;;;;;;4.60;3.92;;;;;;;17.49;69.58;100492.31;11398585;25;20005;-59
2024/04/14 03:22:33;;;;;;;7.25;3.70;;;;;;;17.45;69.80;100497.16;11422138;25;20016;-61
2024/04/14 03:27:34;;;;;;;4.50;3.95;;;;;;;17.34;70.20;100483.16;11395129;25;20004;-60
2024/04/14 03:32:36;;;;;;;4.35;3.35;;;;;;;17.40;70.29;100502.19;11433353;25;20001;-60
2024/04/14 03:37:39;;;;;;;5.63;3.70;;;;;;;17.39;70.34;100503.19;11427989;25;20075;-60
2024/04/14 03:42:41;;;;;;;5.18;3.85;;;;;;;17.39;69.90;100507.72;11432005;25;20079;-61
2024/04/14 03:47:43;;;;;;;4.25;3.85;;;;;;;17.26;71.18;100500.97;11431839;25;20093;-60
2024/04/14 03:52:44;;;;;;;3.25;2.92;;;;;;;17.13;71.51;100500.56;11435023;25;20023;-60
2024/04/14 03:57:46;;;;;;;5.95;3.92;;;;;;;17.19;71.51;100488.28;11368154;25;20016;-60
2024/04/14 04:02:47;;;;;;;4.88;4.15;;;;;;;17.07;72.44;100495.78;11426904;25;20035;-61
2024/04/14 04:07:49;;;;;;;5.63;4.15;;;;;;;17.04;72.47;100498.81;11397358;25;20024;-61
2024/04/14 04:12:52;;;;;;;4.23;3.80;;;;;;;16.99;72.33;100493.91;11420500;25;20009;-60
2024/04/14 04:17:53;;;;;;;3.92;3.55;;;;;;;17.02;72.69;100506.19;11435261;25;21194;-60
2024/04/14 04:22:55;;;;;;;4.43;3.63;;;;;;;16.99;72.48;100509.22;11418570;25;19997;-60
2024/04/14 04:27:56;;;;;;;5.53;4.22;;;;;;;17.02;72.69;100522.34;11433556;25;20048;-61
2024/04/14 04:32:58;;;;;;;3.90;3.55;;;;;;;17.00;73.31;100522.50;11430821;25;20001;-60
2024/04/14 04:38:00;;;;;;;4.93;4.43;;;;;;;16.98;72.93;100524.50;11424576;25;20059;-63
2024/04/14 04:43:02;;;;;;;4.63;3.35;;;;;;;16.98;73.03;100531.72;11428091;25;20729;-63
2024/04/14 04:48:03;;;;;;;4.22;3.83;;;;;;;16.98;72.95;100534.41;11431641;25;20024;-63
2024/04/14 04:53:05;;;;;;;6.28;3.90;;;;;;;17.04;72.68;100541.84;11434120;25;20054;-63
2024/04/14 04:58:07;;;;;;;5.38;3.55;;;;;;;17.04;72.99;100549.91;11387905;25;20000;-63
2024/04/14 05:03:08;;;;;;;4.40;3.97;;;;;;;17.05;73.26;100552.44;11428142;25;20092;-63
2024/04/14 05:08:10;;;;;;;6.10;4.10;;;;;;;17.03;73.18;100546.38;11431679;25;20233;-63
2024/04/14 05:13:12;;;;;;;4.60;3.20;;;;;;;17.11;73.29;100561.72;11436524;25;20307;-63
2024/04/14 05:18:14;;;;;;;4.40;3.58;;;;;;;17.12;73.55;100568.78;11436674;25;20020;-64
2024/04/14 05:23:16;;;;;;;4.88;3.22;;;;;;;17.16;73.80;100562.09;11438513;25;20466;-62
2024/04/14 05:28:17;;;;;;;4.25;3.22;;;;;;;17.10;73.42;100555.50;11443218;25;20045;-64
2024/04/14 05:33:19;;;;;;;4.88;3.45;;;;;;;17.26;73.30;100575.44;11440051;25;20015;-64
2024/04/14 05:38:21;;;;;;;6.07;3.33;;;;;;;17.13;73.40;100543.59;11416208;25;20001;-63
2024/04/14 05:43:22;;;;;;;5.47;3.45;;;;;;;17.33;73.14;100575.66;11383616;25;20001;-65
2024/04/14 05:48:24;;;;;;;6.75;3.85;;;;;;;17.40;72.90;100571.28;11410951;25;20016;-64
2024/04/14 05:53:25;;;;;;;4.93;3.60;;;;;;;17.42;72.98;100585.44;11449141;25;20757;-63
2024/04/14 05:58:27;;;;;;;4.57;3.25;;;;;;;17.48;72.58;100585.63;11435908;25;20000;-64
2024/04/14 06:03:29;;;;;;;4.32;3.28;;;;;;;17.60;71.68;100588.88;11443761;25;20573;-62
2024/04/14 06:08:30;;;;;;;3.00;2.47;;;;;;;17.62;68.79;100575.28;11436578;25;20074;-63
2024/04/14 06:13:32;;;;;;;3.33;1.70;;;;;;;17.72;62.15;100594.00;11435640;25;21654;-64
2024/04/14 06:18:34;;;;;;;2.00;1.00;;;;;;;17.85;58.32;100591.69;11437524;25;20008;-65
2024/04/14 06:23:35;;;;;;;2.10;1.23;;;;;;;17.91;58.30;100591.06;11437110;25;20013;-65
2024/04/14 06:28:38;;;;;;;4.43;1.27;;;;;;;18.00;55.11;100606.25;11440792;25;20005;-63
2024/04/14 06:33:40;;;;;;;1.73;0.90;;;;;;;18.01;53.49;100604.38;11406948;25;20012;-64
2024/04/14 06:38:44;;;;;;;1.75;0.80;;;;;;;17.91;54.62;100591.06;11438209;25;20004;-64
2024/04/14 06:43:45;;;;;;;1.90;1.38;;;;;;;17.98;53.07;100602.84;11380687;25;20037;-64
2024/04/14 06:48:47;;;;;;;3.67;1.60;;;;;;;18.05;53.38;100607.63;11438026;25;20004;-64
2024/04/14 06:53:49;;;;;;;1.58;0.65;;;;;;;18.13;51.70;100613.00;11429951;25;20060;-63
2024/04/14 06:58:52;;;;;;;2.83;0.98;;;;;;;18.05;51.54;100611.13;11436623;25;20015;-65
2024/04/14 07:03:53;;;;;;;1.98;0.90;;;;;;;18.32;51.92;100615.41;11424022;25;20010;-65
2024/04/14 07:08:55;;;;;;;1.88;0.63;;;;;;;18.55;51.93;100620.16;11442838;25;20004;-62
2024/04/14 07:13:56;;;;;;;2.63;0.80;;;;;;;18.68;50.08;100620.50;11436496;25;20005;-63
2024/04/14 07:18:58;;;;;;;2.72;1.42;;;;;;;18.75;50.06;100614.44;11434695;25;20012;-63
2024/04/14 07:23:59;;;;;;;2.42;0.50;;;;;;;18.92;50.47;100624.28;11383852;25;20135;-65
2024/04/14 07:29:01;;;;;;;1.52;0.70;;;;;;;18.99;48.81;100627.13;11426715;25;19996;-65
2024/04/14 07:34:03;;;;;;;3.10;1.00;;;;;;;18.95;48.33;100637.41;11417627;25;20009;-64
2024/04/14 07:39:05;;;;;;;2.75;0.85;;;;;;;19.02;48.84;100627.63;11430540;25;20004;-63
2024/04/14 07:44:07;;;;;;;3.60;1.10;;;;;;;19.23;48.72;100637.03;11425240;25;20005;-63
2024/04/14 07:49:08;;;;;;;1.75;0.90;;;;;;;19.27;47.85;100657.28;11424335;25;20128;-63
2024/04/14 07:54:10;;;;;;;3.10;1.00;;;;;;;19.19;47.83;100638.41;11424913;25;20022;-65
2024/04/14 07:59:11;;;;;;;1.15;0.82;;;;;;;19.62;48.15;100655.16;11417826;25;20013;-64
2024/04/14 08:04:13;;;;;;;2.53;1.00;;;;;;;19.80;46.74;100654.16;11425627;25;20095;-65
2024/04/14 08:09:14;;;;;;;2.35;1.30;;;;;;;19.94;47.86;100645.31;11424456;25;20011;-64
2024/04/14 08:14:16;;;;;;;1.10;0.43;;;;;;;20.14;46.23;100649.25;11392918;25;20474;-64
2024/04/14 08:19:17;;;;;;;2.85;0.77;;;;;;;20.29;45.62;100635.00;11425253;25;20108;-64
2024/04/14 08:24:19;;;;;;;1.17;0.73;;;;;;;20.12;45.80;100639.66;11411810;25;20012;-63
2024/04/14 08:29:21;;;;;;;1.67;0.70;;;;;;;20.32;45.69;100626.53;11422363;25;20013;-62
2024/04/14 08:34:23;;;;;;;1.48;0.85;;;;;;;20.65;44.29;100640.72;11428988;25;20012;-64
2024/04/14 08:39:25;;;;;;;2.47;1.23;;;;;;;20.60;45.89;100642.25;11430637;25;20032;-67
2024/04/14 08:44:26;;;;;;;3.20;0.90;;;;;;;20.71;46.11;100633.75;11386653;25;20017;-68
2024/04/14 08:49:28;;;;;;;2.45;0.95;;;;;;;20.99;45.89;100630.47;11370472;25;20012;-67
2024/04/14 08:54:29;;;;;;;2.45;0.80;;;;;;;21.20;44.09;100637.91;11349347;25;19995;-67
2024/04/14 08:59:33;;;;;;;2.20;0.98;;;;;;;21.40;44.32;100634.66;11426707;25;20061;-66
2024/04/14 09:04:35;;;;;;;1.42;0.70;;;;;;;21.80;43.72;100637.94;11394557;25;20076;-65
2024/04/14 09:09:36;;;;;;;1.50;0.73;;;;;;;21.89;41.79;100640.38;11430745;25;20345;-68
2024/04/14 09:14:38;;;;;;;3.40;1.00;;;;;;;21.87;42.00;100650.56;11405902;25;20068;-67
2024/04/14 09:19:42;;;;;;;2.08;0.90;;;;;;;21.96;41.76;100632.31;11358480;25;20016;-64
2024/04/14 09:24:47;;;;;;;2.53;1.05;;;;;;;22.01;40.83;100631.78;11434443;25;20021;-65
2024/04/14 09:29:48;;;;;;;1.60;0.60;;;;;;;21.91;42.36;100632.06;11396089;25;19997;-64
2024/04/14 09:34:50;;;;;;;3.20;0.98;;;;;;;22.31;42.02;100631.69;11436196;25;20515;-63
2024/04/14 09:39:56;;;;;;;3.00;0.75;;;;;;;22.54;40.97;100648.66;11391871;25;20424;-63
2024/04/14 09:44:59;;;;;;;2.47;0.85;;;;;;;22.44;39.70;100650.84;11438089;25;20013;-64
2024/04/14 09:50:01;;;;;;;1.73;0.55;;;;;;;22.67;39.72;100638.97;11437421;25;20012;-63
2024/04/14 09:55:04;;;;;;;2.28;0.80;;;;;;;23.07;40.17;100648.31;11435200;25;21387;-64
2024/04/14 10:00:10;;;;;;;1.38;0.80;;;;;;;23.26;39.11;100635.97;11427174;25;20012;-65
2024/04/14 10:05:12;;;;;;;1.27;0.60;;;;;;;23.24;38.94;100629.06;11432130;25;20467;-64
2024/04/14 10:10:14;;;;;;;3.05;0.90;;;;;;;23.40;38.34;100627.91;11406521;25;20028;-66
2024/04/14 10:15:20;;;;;;;1.98;0.88;;;;;;;23.80;38.52;100622.72;11389508;25;20065;-64
2024/04/14 10:20:22;;;;;;;2.47;0.90;;;;;;;24.28;37.64;100617.28;11406234;25;20044;-65
2024/04/14 10:25:25;;;;;;;3.20;1.60;;;;;;;24.78;36.34;100618.84;11385531;25;20088;-65
2024/04/14 10:30:28;;;;;;;1.15;0.68;;;;;;;24.65;37.39;100619.66;11406311;25;20004;-64
2024/04/14 10:35:29;;;;;;;1.37;0.53;;;;;;;24.96;35.69;100620.94;11437668;25;20004;-65
2024/04/14 10:40:32;;;;;;;1.25;0.60;;;;;;;25.23;35.18;100599.97;11399952;25;19997;-66
2024/04/14 10:45:37;;;;;;;3.15;0.98;;;;;;;25.29;34.82;100599.13;11403177;25;20027;-63
2024/04/14 10:50:39;;;;;;;1.08;0.50;;;;;;;25.51;35.25;100607.91;11437542;25;20016;-64
2024/04/14 10:55:40;;;;;;;10.67;1.17;;;;;;;25.97;34.72;100597.88;11431521;25;21202;-65
2024/04/14 11:00:42;;;;;;;2.40;1.25;;;;;;;26.17;34.03;100603.28;11441888;25;22345;-65
2024/04/14 11:05:48;;;;;;;2.80;0.88;;;;;;;25.51;34.30;100579.84;11433711;25;20078;-64
2024/04/14 11:10:52;;;;;;;2.08;0.63;;;;;;;26.15;34.60;100599.09;11436126;25;20015;-65
2024/04/14 11:15:57;;;;;;;1.73;0.82;;;;;;;26.39;33.83;100565.59;11388568;25;20001;-64
2024/04/14 11:21:04;;;;;;;1.38;0.60;;;;;;;26.53;33.50;100551.81;11409367;25;20004;-65
2024/04/14 11:26:06;;;;;;;2.50;0.63;;;;;;;26.92;33.36;100569.81;11429437;25;20005;-65
2024/04/14 11:31:07;;;;;;;1.93;0.80;;;;;;;27.41;32.13;100569.94;11425182;25;20001;-65
2024/04/14 11:36:10;;;;;;;1.50;0.67;;;;;;;27.87;31.95;100570.47;11429752;25;20009;-66
2024/04/14 11:41:15;;;;;;;1.60;0.47;;;;;;;28.43;30.90;100559.38;11352107;25;20525;-67
2024/04/14 11:46:19;;;;;;;2.00;1.08;;;;;;;28.76;30.06;100561.59;11393034;25;20754;-65
2024/04/14 11:51:21;;;;;;;0.70;0.22;;;;;;;29.02;29.71;100548.50;11401127;25;20031;-66
2024/04/14 11:56:22;;;;;;;2.47;0.70;;;;;;;29.13;28.79;100546.84;11435428;25;20316;-66
2024/04/14 12:01:24;;;;;;;3.13;0.43;;;;;;;29.25;29.32;100544.97;11390803;25;20507;-65
2024/04/14 12:06:25;;;;;;;2.60;0.40;;;;;;;29.09;29.48;100543.75;11406088;25;20016;-64
2024/04/14 12:11:29;;;;;;;2.95;0.50;;;;;;;29.02;30.05;100537.53;11432275;25;20774;-64
2024/04/14 12:16:33;;;;;;;1.88;0.40;;;;;;;28.41;30.36;100536.91;11422984;25;20000;-65
2024/04/14 12:21:35;;;;;;;3.97;1.55;;;;;;;27.73;31.34;100542.47;11429067;25;20013;-65
2024/04/14 12:26:37;;;;;;;2.20;0.90;;;;;;;27.49;31.62;100536.88;11434405;25;20049;-65
2024/04/14 12:31:38;;;;;;;2.10;0.60;;;;;;;27.72;31.58;100529.03;11421329;25;20713;-64
2024/04/14 12:36:41;;;;;;;1.88;0.70;;;;;;;28.03;31.31;100514.31;11382512;25;19997;-65
2024/04/14 12:41:43;;;;;;;1.83;0.98;;;;;;;28.13;30.72;100503.63;11356880;25;20005;-65
2024/04/14 12:46:44;;;;;;;1.90;0.50;;;;;;;28.16;30.96;100510.53;11429803;25;19997;-65
2024/04/14 12:51:47;;;;;;;0.93;0.45;;;;;;;28.25;30.36;100500.91;11376052;25;20481;-63
2024/04/14 12:56:48;;;;;;;1.17;0.57;;;;;;;28.39;30.53;100490.59;11430560;25;20012;-66
2024/04/14 13:01:51;;;;;;;2.33;0.40;;;;;;;27.94;30.85;100478.22;11341764;25;20230;-63
2024/04/14 13:06:53;;;;;;;1.25;0.20;;;;;;;27.42;31.46;100477.88;11375120;25;21389;-64
2024/04/14 13:11:55;;;;;;;2.13;0.30;;;;;;;27.14;31.99;100476.50;11423894;25;20164;-64
2024/04/14 13:16:56;;;;;;;2.27;0.63;;;;;;;27.45;31.95;100470.03;11426039;25;20024;-63
2024/04/14 13:21:59;;;;;;;1.02;0.30;;;;;;;27.54;30.66;100451.44;11417603;25;20005;-62
2024/04/14 13:27:01;;;;;;;1.58;0.40;;;;;;;27.60;31.46;100441.47;11423040;25;20036;-64
2024/04/14 13:32:05;;;;;;;2.50;0.40;;;;;;;27.51;31.27;100447.25;11431992;25;20040;-63
2024/04/14 13:37:08;;;;;;;1.67;0.40;;;;;;;27.56;31.76;100430.16;11419796;25;20001;-64
2024/04/14 13:42:11;;;;;;;2.08;0.40;;;;;;;27.56;31.55;100421.13;11431170;25;20001;-65
2024/04/14 13:47:13;;;;;;;1.52;0.60;;;;;;;27.33;31.51;100417.22;11432849;25;20135;-64
2024/04/14 13:52:26;;;;;;;2.40;0.67;;;;;;;26.49;32.33;100417.69;11407754;25;20036;-63
2024/04/14 13:57:28;;;;;;;2.30;0.57;;;;;;;26.51;32.44;100409.28;11434342;25;20544;-66
2024/04/14 14:02:30;;;;;;;2.00;0.33;;;;;;;26.51;33.49;100403.84;11422395;25;20526;-63
2024/04/14 14:07:32;;;;;;;1.35;0.40;;;;;;;26.66;32.39;100396.09;11427812;25;20064;-64
2024/04/14 14:12:33;;;;;;;1.33;0.60;;;;;;;26.70;32.67;100389.16;11428226;25;20001;-63
2024/04/14 14:17:35;;;;;;;0.88;0.60;;;;;;;26.63;32.89;100370.13;11436755;25;20047;-64
2024/04/14 14:22:37;;;;;;;0.60;0.30;;;;;;;26.38;33.05;100367.44;11392380;25;20024;-63
2024/04/14 14:27:39;;;;;;;1.10;0.50;;;;;;;26.35;33.68;100367.88;11417314;25;20839;-63
2024/04/14 14:32:40;;;;;;;2.03;0.70;;;;;;;26.29;33.60;100352.41;11406922;25;20099;-65
2024/04/14 14:37:42;;;;;;;1.70;0.40;;;;;;;25.86;34.15;100353.19;11440022;25;20028;-65
2024/04/14 14:42:44;;;;;;;1.20;0.40;;;;;;;25.92;33.76;100349.56;11435073;25;20042;-64
2024/04/14 14:47:46;;;;;;;1.42;0.40;;;;;;;25.79;34.17;100341.50;11425782;25;20033;-64
2024/04/14 14:52:48;;;;;;;;;;;;;;;25.66;34.61;100335.09;11404067;25;20015;-62
2024/04/14 14:57:51;;;;;;;2.38;0.65;;;;;;;25.17;35.55;100325.75;11437281;25;20009;-62
2024/04/14 15:02:52;;;;;;;2.05;0.40;;;;;;;24.88;36.08;100325.25;11411579;25;20794;-64
2024/04/14 15:07:54;;;;;;;2.10;0.60;;;;;;;24.89;36.38;100305.13;11429600;25;20027;-63
2024/04/14 15:12:55;;;;;;;1.02;0.50;;;;;;;25.01;35.83;100314.31;11397216;25;20587;-65
2024/04/14 15:17:57;;;;;;;1.23;0.40;;;;;;;25.05;36.13;100315.53;11435404;25;20016;-64
2024/04/14 15:22:59;;;;;;;1.77;0.65;;;;;;;24.97;36.39;100312.25;11425016;25;20000;-62
2024/04/14 15:28:00;;;;;;;1.42;0.43;;;;;;;24.91;36.29;100303.06;11422474;25;20001;-63
2024/04/14 15:33:09;;;;;;;1.52;0.60;;;;;;;24.77;36.63;100293.25;11404100;25;20061;-64
2024/04/14 15:38:11;;;;;;;1.90;0.50;;;;;;;24.51;37.01;100286.84;11400720;25;20004;-63
2024/04/14 15:43:13;;;;;;;2.08;0.50;;;;;;;24.27;36.91;100270.16;11432997;25;20028;-65
2024/04/14 15:48:17;;;;;;;1.38;0.30;;;;;;;24.40;37.08;100279.38;11420603;25;20001;-63
2024/04/14 15:53:19;;;;;;;1.30;0.68;;;;;;;24.43;37.24;100263.44;11362436;25;20052;-66
2024/04/14 15:58:21;;;;;;;2.13;0.82;;;;;;;24.13;37.37;100263.13;11424048;25;20127;-64
2024/04/14 16:03:22;;;;;;;2.05;0.63;;;;;;;24.16;37.97;100268.94;11399466;25;20013;-64
2024/04/14 16:08:24;;;;;;;2.13;1.02;;;;;;;23.99;37.68;100252.25;11447095;25;20083;-64
2024/04/14 16:13:26;;;;;;;2.30;1.57;;;;;;;24.15;38.16;100250.97;11387286;25;20000;-64
2024/04/14 16:18:28;;;;;;;1.77;0.68;;;;;;;24.19;38.42;100245.94;11373602;25;20999;-65
2024/04/14 16:23:38;;;;;;;3.22;0.80;;;;;;;24.21;38.13;100243.00;11390687;25;20044;-64
2024/04/14 16:28:41;;;;;;;1.58;0.60;;;;;;;24.18;38.83;100236.09;11326061;25;20008;-64
2024/04/14 16:33:43;;;;;;;3.42;0.88;;;;;;;23.97;38.32;100215.47;11406269;25;20877;-64
2024/04/14 16:38:45;;;;;;;2.07;0.90;;;;;;;23.92;38.89;100237.84;11427644;25;20016;-65
2024/04/14 16:43:47;;;;;;;2.65;1.10;;;;;;;23.67;40.44;100231.38;11403893;25;20005;-63
2024/04/14 16:48:50;;;;;;;2.67;1.10;;;;;;;23.52;40.38;100243.28;11411305;25;20015;-66
2024/04/14 16:53:52;;;;;;;1.85;1.10;;;;;;;23.38;40.03;100249.75;11425146;25;20686;-65
2024/04/14 16:58:54;;;;;;;4.45;1.48;;;;;;;23.32;40.09;100239.72;11414138;25;20012;-64
2024/04/14 17:03:57;;;;;;;2.33;1.20;;;;;;;23.11;40.83;100238.88;11426348;25;20035;-64
2024/04/14 17:08:59;;;;;;;;;;;;;;;23.05;40.51;100224.19;11421658;25;20426;-65
2024/04/14 17:14:00;;;;;;;2.35;1.13;;;;;;;22.95;41.20;100235.47;11369531;25;20241;-65
2024/04/14 17:19:02;;;;;;;3.10;1.30;;;;;;;22.86;41.09;100225.81;11383285;25;20028;-65
2024/04/14 17:24:04;;;;;;;2.90;1.40;;;;;;;22.74;41.59;100222.03;11438753;25;20098;-67
2024/04/14 17:29:06;;;;;;;1.90;1.60;;;;;;;22.59;41.80;100231.19;11445828;25;20005;-64
2024/04/14 17:34:07;;;;;;;4.57;1.45;;;;;;;22.46;41.54;100247.41;11439359;25;20011;-64
2024/04/14 17:39:09;;;;;;;7.03;1.60;;;;;;;22.35;42.28;100229.84;11409804;25;20470;-66
2024/04/14 17:44:10;;;;;;;3.70;1.80;;;;;;;22.23;42.55;100234.97;11380606;25;20001;-66
2024/04/14 17:49:13;;;;;;;4.82;2.40;;;;;;;22.13;42.65;100217.38;11413682;25;20000;-66
2024/04/14 17:54:17;;;;;;;4.03;2.25;;;;;;;22.01;42.83;100207.09;11389514;25;20013;-65
2024/04/14 17:59:18;;;;;;;3.75;2.13;;;;;;;21.85;43.04;100213.66;11406295;25;20514;-65
2024/04/14 18:04:22;;;;;;;2.25;1.40;;;;;;;21.64;43.02;100208.31;11439435;25;20019;-64
2024/04/14 18:09:23;;;;;;;3.47;1.63;;;;;;;21.57;43.86;100221.81;11381370;25;20873;-64
2024/04/14 18:14:25;;;;;;;4.75;1.92;;;;;;;21.51;43.65;100217.16;11402557;25;20808;-65
2024/04/14 18:19:28;;;;;;;2.53;1.83;;;;;;;21.43;44.52;100211.88;11326642;25;20008;-63
2024/04/14 18:24:30;;;;;;;2.45;1.67;;;;;;;21.28;44.31;100193.84;11424220;25;20775;-65
2024/04/14 18:29:31;;;;;;;3.20;1.60;;;;;;;21.23;44.68;100209.00;11404487;25;20009;-65
2024/04/14 18:34:34;;;;;;;5.20;1.83;;;;;;;21.16;44.79;100214.34;11394909;25;20009;-66
2024/04/14 18:39:36;;;;;;;5.00;2.28;;;;;;;21.02;45.07;100213.41;11404220;25;20046;-64
2024/04/14 18:44:39;;;;;;;3.13;2.00;;;;;;;20.93;45.43;100219.97;11443837;25;20016;-65
2024/04/14 18:49:41;;;;;;;3.47;1.43;;;;;;;20.74;45.75;100194.38;11405432;25;21735;-65
2024/04/14 18:54:46;;;;;;;4.82;1.83;;;;;;;20.74;45.39;100199.78;11405382;25;20432;-65
2024/04/14 18:59:47;;;;;;;3.58;1.85;;;;;;;20.69;45.42;100205.75;11436496;25;20024;-65
2024/04/14 19:04:49;;;;;;;6.22;2.00;;;;;;;20.62;45.23;100199.41;11423263;25;20008;-65
2024/04/14 19:09:50;;;;;;;3.67;1.80;;;;;;;20.49;45.03;100203.63;11433650;25;20009;-64
2024/04/14 19:14:52;;;;;;;4.63;1.92;;;;;;;20.36;46.00;100184.56;11425285;25;20578;-64
2024/04/14 19:19:53;;;;;;;3.10;1.70;;;;;;;20.35;46.19;100195.56;11409358;25;20038;-64
2024/04/14 19:24:55;;;;;;;3.22;1.75;;;;;;;20.22;46.04;100180.00;11380280;25;20005;-64
2024/04/14 19:29:56;;;;;;;5.53;2.10;;;;;;;20.29;46.34;100180.91;11376448;25;20017;-64
2024/04/14 19:35:01;;;;;;;4.32;1.77;;;;;;;20.11;45.41;100168.63;11380396;25;20073;-66
2024/04/14 19:40:05;;;;;;;2.42;1.45;;;;;;;20.07;45.63;100159.25;11433928;25;20081;-65
2024/04/14 19:45:08;;;;;;;3.03;1.73;;;;;;;20.06;45.14;100165.66;11422479;25;20013;-67
2024/04/14 19:50:11;;;;;;;4.15;1.90;;;;;;;19.96;44.96;100154.31;11405951;25;20009;-65
2024/04/14 19:55:12;;;;;;;2.57;1.80;;;;;;;19.84;44.93;100151.25;11339386;25;20307;-65
2024/04/14 20:00:15;;;;;;;4.13;2.28;;;;;;;19.79;44.87;100150.97;11413665;25;20024;-65
2024/04/14 20:05:18;;;;;;;3.05;1.40;;;;;;;19.80;44.82;100138.28;11362788;25;20016;-66
2024/04/14 20:10:20;;;;;;;2.13;1.85;;;;;;;19.77;44.60;100134.97;11415195;25;20753;-66
2024/04/14 20:15:25;;;;;;;4.88;1.42;;;;;;;19.71;45.18;100130.28;11325850;25;21141;-65
2024/04/14 20:20:30;;;;;;;4.60;2.13;;;;;;;19.64;44.50;100123.09;11391965;25;20015;-65
2024/04/14 20:25:32;;;;;;;3.17;1.70;;;;;;;19.54;44.73;100135.00;11393835;25;20004;-67
2024/04/14 20:30:34;;;;;;;5.15;1.77;;;;;;;19.43;45.45;100106.59;11354779;25;20810;-65
2024/04/14 20:35:37;;;;;;;;;;;;;;;19.46;44.68;100115.38;11383119;25;20020;-64
2024/04/14 20:40:41;;;;;;;2.88;2.00;;;;;;;19.32;44.94;100093.59;11425729;25;19923;-65
2024/04/14 20:45:43;;;;;;;2.53;1.33;;;;;;;19.34;45.52;100096.09;11428104;25;20021;-66
2024/04/14 20:50:45;;;;;;;3.40;1.65;;;;;;;19.31;45.75;100108.09;11440141;25;20005;-65
2024/04/14 20:55:47;;;;;;;4.50;1.80;;;;;;;19.13;45.11;100083.31;11405336;25;20782;-66
2024/04/14 21:00:48;;;;;;;4.38;1.40;;;;;;;19.05;45.35;100087.78;11388345;25;20045;-64
2024/04/14 21:05:50;;;;;;;3.47;2.17;;;;;;;19.04;45.31;100080.69;11411337;25;20004;-65
2024/04/14 21:11:04;;;;;;;;;;;;;;;19.02;45.56;100071.09;11414354;25;20005;-64
2024/04/14 21:16:09;;;;;;;2.65;1.60;;;;;;;19.01;45.90;100072.97;11427352;25;19935;-67
2024/04/14 21:21:11;;;;;;;3.88;1.77;;;;;;;18.89;45.62;100055.56;11421625;25;20469;-64
2024/04/14 21:26:15;;;;;;;2.13;1.30;;;;;;;18.87;45.72;100057.56;11389634;25;20039;-65
2024/04/14 21:31:18;;;;;;;2.22;1.75;;;;;;;18.82;45.79;100051.88;11433163;25;20016;-64
2024/04/14 21:36:20;;;;;;;3.50;1.70;;;;;;;18.77;45.79;100046.22;11431365;25;20015;-65
2024/04/14 21:41:23;;;;;;;2.40;1.60;;;;;;;18.67;45.91;100039.19;11423201;25;20613;-65
2024/04/14 21:46:28;;;;;;;2.60;1.55;;;;;;;18.68;46.25;100027.38;11371366;25;20049;-66
2024/04/14 21:51:29;;;;;;;5.15;2.25;;;;;;;18.58;45.88;100021.41;11425409;25;20015;-64
2024/04/14 21:56:31;;;;;;;3.42;1.50;;;;;;;18.57;46.08;100025.16;11394457;25;20005;-64
2024/04/14 22:01:33;;;;;;;2.53;1.20;;;;;;;18.55;46.41;100016.38;11372616;25;20041;-66
2024/04/14 22:06:34;;;;;;;4.75;1.70;;;;;;;18.51;45.91;100021.31;11424954;25;20080;-63
2024/04/14 22:11:36;;;;;;;3.75;1.67;;;;;;;18.40;46.55;100029.81;11364633;25;20039;-65
2024/04/14 22:16:38;;;;;;;3.22;1.88;;;;;;;18.39;46.61;100033.53;11426026;25;21014;-64
2024/04/14 22:21:40;;;;;;;2.90;1.83;;;;;;;18.23;46.40;100026.41;11387535;25;20028;-64
2024/04/14 22:26:42;;;;;;;3.90;1.60;;;;;;;18.25;46.72;100023.53;11392411;25;21004;-65
2024/04/14 22:31:43;;;;;;;7.72;1.80;;;;;;;18.22;46.81;100027.41;11414596;25;20028;-64
2024/04/14 22:36:45;;;;;;;5.80;1.98;;;;;;;18.19;47.18;100027.75;11437232;25;20008;-65
2024/04/14 22:41:46;;;;;;;4.20;1.95;;;;;;;18.12;47.62;100021.41;11397643;25;20031;-64
2024/04/14 22:46:48;;;;;;;3.25;1.90;;;;;;;18.08;47.28;100020.13;11392526;25;20005;-65
2024/04/14 22:51:50;;;;;;;4.28;1.67;;;;;;;18.00;48.16;100021.84;11357956;25;20420;-64
2024/04/14 22:56:54;;;;;;;4.13;2.00;;;;;;;17.94;47.81;100019.84;11438776;25;20951;-65
2024/04/14 23:01:57;;;;;;;3.10;1.58;;;;;;;17.93;48.41;100031.63;11403899;25;20016;-64
2024/04/14 23:06:59;;;;;;;2.67;2.00;;;;;;;17.89;48.19;100032.13;11432060;25;20005;-66